Time;durP1;ratioP1;P1;durP2;ratioP2;P2;SDS_P1;SDS_P2;PMS_P1;PMS_P2;Temp;Humidity;BMP_temperature;BMP_pressure;BME280_temperature;BME280_humidity;BME280_pressure;Samples;Min_cycle;Max_cycle;Signal;HPM_P1;HPM_P2
2023/07/26 00:00:19;;;;;;;8.00;4.03;;;;;;;;;;5053286;28;20326;-43
2023/07/26 00:03:06;;;;;;;6.93;3.65;;;;;;;;;;5053230;28;20568;-43
2023/07/26 00:05:33;;;;;;;8.93;4.00;;;;;;;;;;5053416;28;20207;-43
2023/07/26 00:08:01;;;;;;;14.50;3.75;;;;;;;;;;5053344;28;20204;-43
2023/07/26 00:10:28;;;;;;;8.38;4.38;;;;;;;;;;5053314;28;20648;-43
2023/07/26 00:12:55;;;;;;;8.63;4.28;;;;;;;;;;5053401;28;20204;-44
2023/07/26 00:15:22;;;;;;;14.10;3.28;;;;;;;;;;5053165;28;20234;-43
2023/07/26 00:17:49;;;;;;;7.65;4.25;;;;;;;;;;5053106;28;20212;-43
2023/07/26 00:20:16;;;;;;;9.30;3.67;;;;;;;;;;5053124;28;20207;-44
2023/07/26 00:22:44;;;;;;;6.40;4.22;;;;;;;;;;5053085;28;20204;-43
2023/07/26 00:25:11;;;;;;;8.57;3.40;;;;;;;;;;5053435;28;20204;-43
2023/07/26 00:27:38;;;;;;;5.38;4.20;;;;;;;;;;5053294;28;20200;-43
2023/07/26 00:30:06;;;;;;;5.70;3.88;;;;;;;;;;5051704;28;20726;-44
2023/07/26 00:32:34;;;;;;;6.38;4.07;;;;;;;;;;5053329;28;20211;-43
2023/07/26 00:35:02;;;;;;;5.22;4.07;;;;;;;;;;5051833;28;20224;-43
2023/07/26 00:37:29;;;;;;;10.13;3.97;;;;;;;;;;5052776;28;20203;-44
2023/07/26 00:39:57;;;;;;;5.93;4.05;;;;;;;;;;5053131;28;20204;-43
2023/07/26 00:42:24;;;;;;;11.23;4.03;;;;;;;;;;5053119;28;20210;-43
2023/07/26 00:44:51;;;;;;;7.07;4.00;;;;;;;;;;5054955;28;20291;-44
2023/07/26 00:47:20;;;;;;;8.07;3.78;;;;;;;;;;5056604;28;20211;-44
2023/07/26 00:49:49;;;;;;;6.80;3.78;;;;;;;;;;5056518;28;20652;-43
2023/07/26 00:52:17;;;;;;;6.03;3.85;;;;;;;;;;5056773;28;20200;-43
2023/07/26 00:54:44;;;;;;;7.30;4.22;;;;;;;;;;5055527;28;20298;-43
2023/07/26 00:57:11;;;;;;;15.57;4.60;;;;;;;;;;5084274;28;20199;-43
2023/07/26 00:59:38;;;;;;;14.70;3.45;;;;;;;;;;5076425;28;20194;-43
2023/07/26 01:02:05;;;;;;;7.47;3.67;;;;;;;;;;5076302;28;20688;-43
2023/07/26 01:04:33;;;;;;;12.60;3.80;;;;;;;;;;5075115;28;20751;-43
2023/07/26 01:07:13;;;;;;;6.53;3.38;;;;;;;;;;5076713;28;20203;-43
2023/07/26 01:09:46;;;;;;;4.90;3.53;;;;;;;;;;5075571;28;20226;-43
2023/07/26 01:12:22;;;;;;;8.20;3.75;;;;;;;;;;5076399;28;20225;-43
2023/07/26 01:14:56;;;;;;;6.90;3.30;;;;;;;;;;5076341;28;20221;-43
2023/07/26 01:17:23;;;;;;;8.48;4.03;;;;;;;;;;5075085;28;20691;-43
2023/07/26 01:19:50;;;;;;;10.27;4.10;;;;;;;;;;5074854;28;20729;-43
2023/07/26 01:22:17;;;;;;;7.85;3.85;;;;;;;;;;5076220;28;20222;-44
2023/07/26 01:24:44;;;;;;;9.05;3.90;;;;;;;;;;5075939;28;20203;-44
2023/07/26 01:27:12;;;;;;;6.82;3.67;;;;;;;;;;5074861;28;20199;-43
2023/07/26 01:29:39;;;;;;;11.88;4.50;;;;;;;;;;5075955;28;20206;-43
2023/07/26 01:32:09;;;;;;;6.75;3.70;;;;;;;;;;5074913;28;20203;-43
2023/07/26 01:34:37;;;;;;;6.25;4.00;;;;;;;;;;5075088;28;20255;-44
2023/07/26 01:37:07;;;;;;;13.63;4.10;;;;;;;;;;5075819;28;20328;-43
2023/07/26 01:39:35;;;;;;;11.43;4.60;;;;;;;;;;5074765;28;20286;-44
2023/07/26 01:42:03;;;;;;;5.55;4.25;;;;;;;;;;5057860;28;20199;-43
2023/07/26 01:44:36;;;;;;;11.15;4.07;;;;;;;;;;5075823;28;20253;-45
2023/07/26 01:47:04;;;;;;;7.43;4.13;;;;;;;;;;5075608;28;20194;-42
2023/07/26 01:49:31;;;;;;;6.68;4.38;;;;;;;;;;5075872;28;20203;-43
2023/07/26 01:51:58;;;;;;;13.63;3.95;;;;;;;;;;5075755;28;20207;-42
2023/07/26 01:54:25;;;;;;;6.15;4.05;;;;;;;;;;5074109;28;20247;-43
2023/07/26 01:56:53;;;;;;;13.10;4.70;;;;;;;;;;5073940;28;20553;-43
2023/07/26 01:59:20;;;;;;;12.45;4.95;;;;;;;;;;5074124;28;20659;-43
2023/07/26 02:01:48;;;;;;;12.18;4.22;;;;;;;;;;5074071;28;20557;-43
2023/07/26 02:04:15;;;;;;;12.02;4.65;;;;;;;;;;5074115;28;20203;-43
2023/07/26 02:06:42;;;;;;;13.48;5.05;;;;;;;;;;5073982;28;20200;-43
2023/07/26 02:09:09;;;;;;;11.30;4.05;;;;;;;;;;5073779;28;20203;-44
2023/07/26 02:11:37;;;;;;;14.73;4.07;;;;;;;;;;5073660;28;20703;-43
2023/07/26 02:14:04;;;;;;;12.07;4.22;;;;;;;;;;5074941;28;20214;-43
2023/07/26 02:16:31;;;;;;;9.25;4.55;;;;;;;;;;5074837;28;20255;-43
2023/07/26 02:18:58;;;;;;;9.75;4.57;;;;;;;;;;5073628;28;20199;-43
2023/07/26 02:21:26;;;;;;;10.80;4.50;;;;;;;;;;5073678;28;20276;-43
2023/07/26 02:23:53;;;;;;;7.15;4.18;;;;;;;;;;5073374;28;20207;-43
2023/07/26 02:26:20;;;;;;;7.93;3.83;;;;;;;;;;5074764;28;20257;-43
2023/07/26 02:28:47;;;;;;;17.35;4.38;;;;;;;;;;5073200;28;20743;-43
2023/07/26 02:31:15;;;;;;;11.35;4.32;;;;;;;;;;5073225;28;20663;-43
2023/07/26 02:33:42;;;;;;;11.05;4.20;;;;;;;;;;5107105;28;20202;-43
2023/07/26 02:36:09;;;;;;;6.85;4.03;;;;;;;;;;5074424;28;20245;-42
2023/07/26 02:38:36;;;;;;;11.45;4.45;;;;;;;;;;5074499;28;20208;-43
2023/07/26 02:41:04;;;;;;;8.73;4.18;;;;;;;;;;5074140;28;20664;-43
2023/07/26 02:43:32;;;;;;;10.45;3.75;;;;;;;;;;5074319;28;20605;-43
2023/07/26 02:46:08;;;;;;;6.20;3.85;;;;;;;;;;5074135;28;20211;-44
2023/07/26 02:48:36;;;;;;;9.80;4.10;;;;;;;;;;5072858;28;20207;-42
2023/07/26 02:51:03;;;;;;;11.07;4.38;;;;;;;;;;5072802;28;20214;-43
2023/07/26 02:53:30;;;;;;;11.75;4.20;;;;;;;;;;5073101;28;20203;-43
2023/07/26 02:55:58;;;;;;;7.80;4.20;;;;;;;;;;5074104;28;20231;-42
2023/07/26 02:58:25;;;;;;;12.07;4.50;;;;;;;;;;5073925;28;20199;-43
2023/07/26 03:00:53;;;;;;;6.57;3.95;;;;;;;;;;5072643;28;20656;-43
2023/07/26 03:03:20;;;;;;;11.98;4.35;;;;;;;;;;5073802;28;20252;-43
2023/07/26 03:05:48;;;;;;;20.23;4.40;;;;;;;;;;5072521;28;20605;-42
2023/07/26 03:08:15;;;;;;;6.70;4.32;;;;;;;;;;5073193;28;20204;-43
2023/07/26 03:10:42;;;;;;;9.00;4.28;;;;;;;;;;5073576;28;20199;-43
2023/07/26 03:13:09;;;;;;;11.15;4.20;;;;;;;;;;5073855;28;20203;-43
2023/07/26 03:15:39;;;;;;;12.00;4.05;;;;;;;;;;5073610;28;20231;-43
2023/07/26 03:18:07;;;;;;;15.18;4.40;;;;;;;;;;5073792;28;20203;-43
2023/07/26 03:20:34;;;;;;;6.95;4.60;;;;;;;;;;5073905;28;20199;-42
2023/07/26 03:23:01;;;;;;;12.55;4.22;;;;;;;;;;5073819;28;20209;-42
2023/07/26 03:25:29;;;;;;;12.75;5.07;;;;;;;;;;5072310;28;20203;-43
2023/07/26 03:27:56;;;;;;;6.00;4.25;;;;;;;;;;5073539;28;20203;-42
2023/07/26 03:30:23;;;;;;;18.50;4.47;;;;;;;;;;5071470;28;20215;-43
2023/07/26 03:32:50;;;;;;;8.02;3.88;;;;;;;;;;5065863;28;20215;-42
2023/07/26 03:35:17;;;;;;;7.28;4.60;;;;;;;;;;5065940;28;20223;-44
2023/07/26 03:37:44;;;;;;;18.05;5.35;;;;;;;;;;5070237;28;20192;-44
2023/07/26 03:40:14;;;;;;;8.60;4.20;;;;;;;;;;5066747;28;20200;-46
2023/07/26 03:42:42;;;;;;;11.55;5.32;;;;;;;;;;5069488;28;20204;-44
2023/07/26 03:45:09;;;;;;;9.52;4.82;;;;;;;;;;5070211;28;20214;-43
2023/07/26 03:47:36;;;;;;;10.90;4.85;;;;;;;;;;5066249;28;20203;-43
2023/07/26 03:50:06;;;;;;;6.60;4.35;;;;;;;;;;5070090;28;20213;-43
2023/07/26 03:52:33;;;;;;;4.88;3.97;;;;;;;;;;5068918;28;20256;-43
2023/07/26 03:55:01;;;;;;;9.00;4.85;;;;;;;;;;5068308;28;20223;-43
2023/07/26 03:57:29;;;;;;;8.40;4.60;;;;;;;;;;5069858;28;20282;-43
2023/07/26 03:59:56;;;;;;;18.88;4.45;;;;;;;;;;5072039;28;20203;-44
2023/07/26 04:02:24;;;;;;;10.65;4.88;;;;;;;;;;5072696;28;20199;-44
2023/07/26 04:04:52;;;;;;;12.25;4.95;;;;;;;;;;5073077;28;20192;-43
2023/07/26 04:07:19;;;;;;;11.90;4.35;;;;;;;;;;5067951;28;20195;-43
2023/07/26 04:09:46;;;;;;;13.13;5.47;;;;;;;;;;5068128;28;20219;-43
2023/07/26 04:12:13;;;;;;;13.63;4.72;;;;;;;;;;5067165;28;20348;-42
2023/07/26 04:14:41;;;;;;;9.23;4.65;;;;;;;;;;5072099;28;20211;-42
2023/07/26 04:17:08;;;;;;;8.00;4.40;;;;;;;;;;5071911;28;20254;-42
2023/07/26 04:19:35;;;;;;;9.02;5.10;;;;;;;;;;5075450;28;20234;-42
2023/07/26 04:22:02;;;;;;;6.25;5.07;;;;;;;;;;5076171;28;20265;-42
2023/07/26 04:24:29;;;;;;;12.20;5.28;;;;;;;;;;5076180;28;20219;-42
2023/07/26 04:26:56;;;;;;;7.50;5.40;;;;;;;;;;5072096;28;20641;-43
2023/07/26 04:29:24;;;;;;;12.32;5.22;;;;;;;;;;5073632;28;20230;-43
2023/07/26 04:31:51;;;;;;;12.57;5.80;;;;;;;;;;5076028;28;20215;-42
2023/07/26 04:34:18;;;;;;;8.93;5.47;;;;;;;;;;5076097;28;20314;-43
2023/07/26 04:36:45;;;;;;;10.18;5.20;;;;;;;;;;5076107;28;20719;-43
2023/07/26 04:39:13;;;;;;;10.25;5.03;;;;;;;;;;5074704;28;20211;-45
2023/07/26 04:41:40;;;;;;;6.50;5.13;;;;;;;;;;5075839;28;20766;-43
2023/07/26 04:44:08;;;;;;;10.52;5.05;;;;;;;;;;5074431;28;20234;-44
2023/07/26 04:46:35;;;;;;;16.33;5.03;;;;;;;;;;5076152;28;20247;-45
2023/07/26 04:49:03;;;;;;;11.18;5.10;;;;;;;;;;5074148;28;20231;-43
2023/07/26 04:51:30;;;;;;;6.47;5.10;;;;;;;;;;5075070;28;20250;-43
2023/07/26 04:53:57;;;;;;;7.00;4.80;;;;;;;;;;5075251;28;20219;-43
2023/07/26 04:56:26;;;;;;;6.88;5.50;;;;;;;;;;5075867;28;20255;-42
2023/07/26 04:58:53;;;;;;;7.38;5.03;;;;;;;;;;5075438;28;20223;-42
2023/07/26 05:01:20;;;;;;;19.15;5.40;;;;;;;;;;5108320;28;20281;-42
2023/07/26 05:03:48;;;;;;;8.18;4.95;;;;;;;;;;5075650;28;20769;-44
2023/07/26 05:06:15;;;;;;;6.57;4.80;;;;;;;;;;5075764;28;20277;-42
2023/07/26 05:08:43;;;;;;;7.38;5.65;;;;;;;;;;5075599;28;20227;-42
2023/07/26 05:11:10;;;;;;;5.95;4.68;;;;;;;;;;5074019;28;20229;-42
2023/07/26 05:13:38;;;;;;;7.80;4.97;;;;;;;;;;5060838;28;20262;-44
2023/07/26 05:16:05;;;;;;;9.93;5.15;;;;;;;;;;5064958;28;20738;-42
2023/07/26 05:18:32;;;;;;;5.95;4.75;;;;;;;;;;5054505;28;20664;-43
2023/07/26 05:20:59;;;;;;;8.55;5.40;;;;;;;;;;5055574;28;20204;-43
2023/07/26 05:23:26;;;;;;;8.45;4.38;;;;;;;;;;5056210;28;20310;-43
2023/07/26 05:25:53;;;;;;;6.15;4.78;;;;;;;;;;5075682;28;20207;-42
2023/07/26 05:28:21;;;;;;;7.15;5.20;;;;;;;;;;5076248;28;20207;-43
2023/07/26 05:30:49;;;;;;;9.32;4.95;;;;;;;;;;5075035;28;20203;-43
2023/07/26 05:33:17;;;;;;;8.07;4.90;;;;;;;;;;5075729;28;20210;-40
2023/07/26 05:35:43;;;;;;;7.55;5.03;;;;;;;;;;5075662;28;20226;-41
2023/07/26 05:38:11;;;;;;;7.13;4.85;;;;;;;;;;5075664;28;20597;-42
2023/07/26 05:40:38;;;;;;;8.82;4.90;;;;;;;;;;5076305;28;20203;-43
2023/07/26 05:43:05;;;;;;;7.55;4.90;;;;;;;;;;5075622;28;20207;-42
2023/07/26 05:45:32;;;;;;;7.88;5.18;;;;;;;;;;5075532;28;20249;-43
2023/07/26 05:47:59;;;;;;;7.78;5.30;;;;;;;;;;5064290;28;20577;-43
2023/07/26 05:50:26;;;;;;;6.60;5.18;;;;;;;;;;5055663;28;20286;-42
2023/07/26 05:52:54;;;;;;;7.32;5.28;;;;;;;;;;5055405;28;20215;-42
2023/07/26 05:55:21;;;;;;;12.52;4.50;;;;;;;;;;5055705;28;20539;-42
2023/07/26 05:57:48;;;;;;;6.32;4.85;;;;;;;;;;5055566;28;20216;-43
2023/07/26 06:00:17;;;;;;;8.52;4.45;;;;;;;;;;5059265;28;20202;-42
2023/07/26 06:02:45;;;;;;;5.50;4.53;;;;;;;;;;5075125;28;20569;-43
2023/07/26 06:05:12;;;;;;;6.90;5.38;;;;;;;;;;5075584;28;20195;-43
2023/07/26 06:07:39;;;;;;;7.18;5.13;;;;;;;;;;5075740;28;20207;-42
2023/07/26 06:10:07;;;;;;;10.25;5.50;;;;;;;;;;5075230;28;20210;-43
2023/07/26 06:12:35;;;;;;;6.47;4.63;;;;;;;;;;5075101;28;20249;-42
2023/07/26 06:15:02;;;;;;;9.23;4.63;;;;;;;;;;5075182;28;20201;-42
2023/07/26 06:17:29;;;;;;;4.90;3.92;;;;;;;;;;5075177;28;20239;-42
2023/07/26 06:19:56;;;;;;;6.82;4.75;;;;;;;;;;5074729;28;20647;-40
2023/07/26 06:22:24;;;;;;;10.30;4.68;;;;;;;;;;5074966;28;20203;-42
2023/07/26 06:24:51;;;;;;;5.95;4.53;;;;;;;;;;5074802;28;20206;-43
2023/07/26 06:27:22;;;;;;;6.28;4.25;;;;;;;;;;5074794;28;20207;-42
2023/07/26 06:29:49;;;;;;;8.50;4.78;;;;;;;;;;5074777;28;20225;-42
2023/07/26 06:32:16;;;;;;;6.30;4.78;;;;;;;;;;5074054;28;20199;-41
2023/07/26 06:34:44;;;;;;;6.47;4.40;;;;;;;;;;5074109;28;20204;-44
2023/07/26 06:37:11;;;;;;;12.23;4.15;;;;;;;;;;5073910;28;20249;-42
2023/07/26 06:39:38;;;;;;;6.40;3.35;;;;;;;;;;5074037;28;20196;-42
2023/07/26 06:42:06;;;;;;;6.82;3.78;;;;;;;;;;5073955;28;20199;-42
2023/07/26 06:44:33;;;;;;;10.77;3.42;;;;;;;;;;5074158;28;20282;-42
2023/07/26 06:47:01;;;;;;;5.13;3.50;;;;;;;;;;5073834;28;20199;-41
2023/07/26 06:49:28;;;;;;;3.47;2.97;;;;;;;;;;5071255;28;20664;-43
2023/07/26 06:51:55;;;;;;;4.00;2.90;;;;;;;;;;5073934;28;20543;-43
2023/07/26 06:54:22;;;;;;;5.35;2.70;;;;;;;;;;5073871;28;20191;-41
2023/07/26 06:56:50;;;;;;;3.88;3.17;;;;;;;;;;5074648;28;20595;-42
2023/07/26 06:59:18;;;;;;;4.30;3.13;;;;;;;;;;5073517;28;20722;-41
2023/07/26 07:01:45;;;;;;;4.85;3.00;;;;;;;;;;5073534;28;20255;-41
2023/07/26 07:04:12;;;;;;;4.95;3.10;;;;;;;;;;5073530;28;20662;-44
2023/07/26 07:06:43;;;;;;;3.92;3.05;;;;;;;;;;5073482;28;20667;-41
2023/07/26 07:09:10;;;;;;;5.63;4.13;;;;;;;;;;5070914;28;20191;-42
2023/07/26 07:11:38;;;;;;;4.22;2.92;;;;;;;;;;5073524;28;20203;-42
2023/07/26 07:14:05;;;;;;;7.72;3.50;;;;;;;;;;5073746;28;20199;-42
2023/07/26 07:16:36;;;;;;;6.25;4.00;;;;;;;;;;5071864;28;20632;-41
2023/07/26 07:19:03;;;;;;;5.68;3.60;;;;;;;;;;5071860;28;20558;-42
2023/07/26 07:21:31;;;;;;;6.47;3.15;;;;;;;;;;5072427;28;20203;-42
2023/07/26 07:23:58;;;;;;;5.72;3.00;;;;;;;;;;5073491;28;20260;-41
2023/07/26 07:26:26;;;;;;;4.55;3.35;;;;;;;;;;5073120;28;20263;-42
2023/07/26 07:28:53;;;;;;;6.78;4.05;;;;;;;;;;5073397;28;20199;-42
2023/07/26 07:31:20;;;;;;;4.28;3.17;;;;;;;;;;5073235;28;20667;-43
2023/07/26 07:33:47;;;;;;;8.05;2.97;;;;;;;;;;5073572;28;20207;-42
2023/07/26 07:36:18;;;;;;;4.03;2.78;;;;;;;;;;5073463;28;20231;-42
2023/07/26 07:38:46;;;;;;;3.50;2.97;;;;;;;;;;5066676;28;20246;-42
2023/07/26 07:41:13;;;;;;;5.57;2.95;;;;;;;;;;5074276;28;20612;-42
2023/07/26 07:43:40;;;;;;;3.63;2.65;;;;;;;;;;5094154;28;20276;-42
2023/07/26 07:46:08;;;;;;;4.20;3.13;;;;;;;;;;5093715;28;20221;-42
2023/07/26 07:48:36;;;;;;;3.92;2.72;;;;;;;;;;5093580;28;20207;-42
2023/07/26 07:51:04;;;;;;;6.93;3.03;;;;;;;;;;5093957;28;20213;-42
2023/07/26 07:53:31;;;;;;;5.65;2.70;;;;;;;;;;5092786;28;20202;-41
2023/07/26 07:55:58;;;;;;;4.50;2.60;;;;;;;;;;5093696;28;20207;-42
2023/07/26 07:58:26;;;;;;;4.78;2.33;;;;;;;;;;5071026;28;20202;-43
2023/07/26 08:00:58;;;;;;;2.72;2.33;;;;;;;;;;5073137;28;20202;-43
2023/07/26 08:03:26;;;;;;;5.10;2.38;;;;;;;;;;5073576;28;20214;-42
2023/07/26 08:05:53;;;;;;;4.10;2.30;;;;;;;;;;5073504;28;20199;-45
2023/07/26 08:08:21;;;;;;;3.05;2.33;;;;;;;;;;5072590;28;20199;-42
2023/07/26 08:10:49;;;;;;;3.15;2.20;;;;;;;;;;5073456;28;20272;-43
2023/07/26 08:13:16;;;;;;;3.15;2.38;;;;;;;;;;5073143;28;20199;-43
2023/07/26 08:15:43;;;;;;;3.03;2.22;;;;;;;;;;5072978;28;20235;-43
2023/07/26 08:18:10;;;;;;;3.22;2.25;;;;;;;;;;5073287;28;20234;-44
2023/07/26 08:20:38;;;;;;;3.63;2.20;;;;;;;;;;5073057;28;20218;-43
2023/07/26 08:23:06;;;;;;;3.30;2.50;;;;;;;;;;5072661;28;20644;-43
2023/07/26 08:25:34;;;;;;;4.15;2.45;;;;;;;;;;5073151;28;20203;-43
2023/07/26 08:28:01;;;;;;;5.80;2.50;;;;;;;;;;5073031;28;20207;-44
2023/07/26 08:30:28;;;;;;;3.30;2.55;;;;;;;;;;5072915;28;20210;-44
2023/07/26 08:32:55;;;;;;;2.78;2.17;;;;;;;;;;5072680;28;20206;-43
2023/07/26 08:35:23;;;;;;;6.78;3.05;;;;;;;;;;5072963;28;20206;-44
2023/07/26 08:37:50;;;;;;;1.67;1.58;;;;;;;;;;5071496;28;20231;-43
2023/07/26 08:40:19;;;;;;;4.70;2.15;;;;;;;;;;5072975;28;20207;-44
2023/07/26 08:42:46;;;;;;;3.97;2.42;;;;;;;;;;5072575;28;20287;-43
2023/07/26 08:45:14;;;;;;;3.70;2.10;;;;;;;;;;5071666;28;20204;-43
2023/07/26 08:47:41;;;;;;;2.58;1.83;;;;;;;;;;5071663;28;20256;-44
2023/07/26 08:50:09;;;;;;;4.65;2.13;;;;;;;;;;5071829;28;20215;-44
2023/07/26 08:52:37;;;;;;;6.97;2.00;;;;;;;;;;5072040;28;20684;-43
2023/07/26 08:55:06;;;;;;;3.45;1.88;;;;;;;;;;5072251;28;20613;-44
2023/07/26 08:57:33;;;;;;;1.70;1.60;;;;;;;;;;5069520;28;20235;-43
2023/07/26 09:00:00;;;;;;;1.98;1.60;;;;;;;;;;5063291;28;20567;-44
2023/07/26 09:02:27;;;;;;;7.78;1.58;;;;;;;;;;5071713;28;20200;-43
2023/07/26 09:04:56;;;;;;;2.13;1.50;;;;;;;;;;5072854;28;20195;-43
2023/07/26 09:07:23;;;;;;;1.40;1.30;;;;;;;;;;5076173;28;20683;-42
2023/07/26 09:09:51;;;;;;;2.60;1.60;;;;;;;;;;5076484;28;20273;-42
2023/07/26 09:12:28;;;;;;;2.47;1.42;;;;;;;;;;5075887;28;20253;-44
2023/07/26 09:14:59;;;;;;;2.13;1.52;;;;;;;;;;5076532;28;20206;-43
2023/07/26 09:17:44;;;;;;;2.17;1.33;;;;;;;;;;5059424;28;20235;-43
2023/07/26 09:20:21;;;;;;;1.80;1.33;;;;;;;;;;5059285;28;20256;-42
2023/07/26 09:22:58;;;;;;;2.30;1.20;;;;;;;;;;5076278;28;20203;-43
2023/07/26 09:25:40;;;;;;;1.65;1.20;;;;;;;;;;5075976;28;20555;-41
2023/07/26 09:28:08;;;;;;;2.55;1.25;;;;;;;;;;5076041;28;20210;-42
2023/07/26 09:30:36;;;;;;;1.33;1.02;;;;;;;;;;5075436;28;20203;-42
2023/07/26 09:33:06;;;;;;;2.22;1.52;;;;;;;;;;5073061;28;21000;-46
2023/07/26 09:35:48;;;;;;;1.83;1.15;;;;;;;;;;5075906;28;20202;-43
2023/07/26 09:38:16;;;;;;;4.35;1.45;;;;;;;;;;5076163;28;20223;-42
2023/07/26 09:40:44;;;;;;;3.33;1.55;;;;;;;;;;5075647;28;20659;-45
2023/07/26 09:43:11;;;;;;;2.50;1.05;;;;;;;;;;5075267;28;20214;-45
2023/07/26 09:45:40;;;;;;;1.38;1.20;;;;;;;;;;5074982;28;20723;-43
2023/07/26 09:48:10;;;;;;;3.67;0.95;;;;;;;;;;5074486;28;20231;-44
2023/07/26 09:50:43;;;;;;;1.15;1.05;;;;;;;;;;5075649;28;20196;-43
2023/07/26 09:53:11;;;;;;;3.10;1.00;;;;;;;;;;5075552;28;20203;-43
2023/07/26 09:55:39;;;;;;;1.35;1.10;;;;;;;;;;5075433;28;20203;-44
2023/07/26 09:58:07;;;;;;;2.10;1.25;;;;;;;;;;5075611;28;20219;-42
2023/07/26 10:00:36;;;;;;;1.00;0.80;;;;;;;;;;5074793;28;20714;-44
2023/07/26 10:03:05;;;;;;;2.33;1.25;;;;;;;;;;5073879;28;20199;-42
2023/07/26 10:05:39;;;;;;;1.40;0.98;;;;;;;;;;5075357;28;20558;-43
2023/07/26 10:08:06;;;;;;;1.83;1.00;;;;;;;;;;5073974;28;20282;-44
2023/07/26 10:10:33;;;;;;;3.55;1.25;;;;;;;;;;5073864;28;20229;-45
2023/07/26 10:13:00;;;;;;;1.80;1.23;;;;;;;;;;5074212;28;20200;-44
2023/07/26 10:15:30;;;;;;;1.90;1.08;;;;;;;;;;5074094;28;20906;-45
2023/07/26 10:17:57;;;;;;;3.55;1.10;;;;;;;;;;5073857;28;20595;-43
2023/07/26 10:20:25;;;;;;;1.05;0.98;;;;;;;;;;5073800;28;20211;-44
2023/07/26 10:22:53;;;;;;;1.42;1.00;;;;;;;;;;5073574;28;20204;-43
2023/07/26 10:25:20;;;;;;;2.05;0.95;;;;;;;;;;5075086;28;20207;-43
2023/07/26 10:27:47;;;;;;;1.17;0.98;;;;;;;;;;5069139;28;20200;-42
2023/07/26 10:30:15;;;;;;;2.83;0.90;;;;;;;;;;5086601;28;20204;-45
2023/07/26 10:32:48;;;;;;;2.03;1.17;;;;;;;;;;5070401;28;20226;-43
2023/07/26 10:35:33;;;;;;;1.65;1.05;;;;;;;;;;5071710;28;20612;-42
2023/07/26 10:38:03;;;;;;;2.50;1.23;;;;;;;;;;5074563;28;20222;-43
2023/07/26 10:40:31;;;;;;;1.42;1.00;;;;;;;;;;5074667;28;20208;-43
2023/07/26 10:42:59;;;;;;;2.72;1.20;;;;;;;;;;5073982;28;20290;-44
2023/07/26 10:45:44;;;;;;;1.58;0.90;;;;;;;;;;5074331;28;20199;-44
2023/07/26 10:48:32;;;;;;;1.38;0.93;;;;;;;;;;5074376;28;20713;-42
2023/07/26 10:51:14;;;;;;;1.67;0.95;;;;;;;;;;5064362;28;20256;-42
2023/07/26 10:53:42;;;;;;;2.03;1.10;;;;;;;;;;5073036;28;20207;-43
2023/07/26 10:56:18;;;;;;;2.95;1.17;;;;;;;;;;5074158;28;20214;-43
2023/07/26 10:58:50;;;;;;;1.58;1.08;;;;;;;;;;5073232;28;20261;-45
2023/07/26 11:01:40;;;;;;;1.05;0.88;;;;;;;;;;5073992;28;20195;-43
2023/07/26 11:04:15;;;;;;;1.90;0.90;;;;;;;;;;5071393;28;20221;-43
2023/07/26 11:06:59;;;;;;;1.40;1.08;;;;;;;;;;5073033;28;20202;-46
2023/07/26 11:09:31;;;;;;;1.20;0.85;;;;;;;;;;5073277;28;20241;-43
2023/07/26 11:12:00;;;;;;;2.92;1.02;;;;;;;;;;5072931;28;20206;-43
2023/07/26 11:14:32;;;;;;;3.08;1.10;;;;;;;;;;5070814;28;20192;-42
2023/07/26 11:17:11;;;;;;;1.75;1.13;;;;;;;;;;5073264;28;20238;-43
2023/07/26 11:19:46;;;;;;;2.08;1.05;;;;;;;;;;5071718;28;20195;-42
2023/07/26 11:22:14;;;;;;;3.05;1.00;;;;;;;;;;5073413;28;20260;-43
2023/07/26 11:24:41;;;;;;;1.60;1.13;;;;;;;;;;5073402;28;20649;-42
2023/07/26 11:27:08;;;;;;;2.53;1.08;;;;;;;;;;5073119;28;20659;-42
2023/07/26 11:29:36;;;;;;;1.58;0.93;;;;;;;;;;5066157;28;20206;-42
2023/07/26 11:32:03;;;;;;;1.55;1.20;;;;;;;;;;5073488;28;20195;-44
2023/07/26 11:34:31;;;;;;;1.30;1.00;;;;;;;;;;5073368;28;20199;-43
2023/07/26 11:37:08;;;;;;;2.20;1.27;;;;;;;;;;5073022;28;20196;-42
2023/07/26 11:39:35;;;;;;;1.67;0.90;;;;;;;;;;5070525;28;20191;-42
2023/07/26 11:42:03;;;;;;;1.35;1.00;;;;;;;;;;5072888;28;20203;-43
2023/07/26 11:44:30;;;;;;;4.55;1.00;;;;;;;;;;5070426;28;20603;-43
2023/07/26 11:47:00;;;;;;;1.30;0.98;;;;;;;;;;5072962;28;20191;-44
2023/07/26 11:49:28;;;;;;;1.83;1.15;;;;;;;;;;5068585;28;20188;-42
2023/07/26 11:51:55;;;;;;;2.88;1.15;;;;;;;;;;5072466;28;20660;-42
2023/07/26 11:54:25;;;;;;;2.00;0.95;;;;;;;;;;5072708;28;20705;-44
2023/07/26 11:56:52;;;;;;;1.67;0.70;;;;;;;;;;5072951;28;20651;-42
2023/07/26 11:59:21;;;;;;;1.98;1.00;;;;;;;;;;5073060;28;20250;-42
2023/07/26 12:01:48;;;;;;;2.65;1.05;;;;;;;;;;5072980;28;20207;-42
2023/07/26 12:04:16;;;;;;;1.65;1.00;;;;;;;;;;5072639;28;20294;-42
2023/07/26 12:06:48;;;;;;;1.77;0.80;;;;;;;;;;5073126;28;20215;-42
2023/07/26 12:09:15;;;;;;;1.92;0.98;;;;;;;;;;5072956;28;20683;-43
2023/07/26 12:11:53;;;;;;;1.20;0.90;;;;;;;;;;5072826;28;20199;-42
2023/07/26 12:14:21;;;;;;;1.10;0.70;;;;;;;;;;5072240;28;20192;-42
2023/07/26 12:16:50;;;;;;;2.88;1.00;;;;;;;;;;5071040;28;20223;-43
2023/07/26 12:19:21;;;;;;;4.18;1.08;;;;;;;;;;5072003;28;20242;-43
2023/07/26 12:21:49;;;;;;;0.98;0.65;;;;;;;;;;5073392;28;20211;-43
2023/07/26 12:24:17;;;;;;;0.85;0.60;;;;;;;;;;5073384;28;20233;-43
2023/07/26 12:26:47;;;;;;;1.80;0.90;;;;;;;;;;5072994;28;20218;-43
2023/07/26 12:29:15;;;;;;;1.42;0.80;;;;;;;;;;5068454;28;20290;-45
2023/07/26 12:31:42;;;;;;;1.25;0.80;;;;;;;;;;5067439;28;20256;-51
2023/07/26 12:34:12;;;;;;;0.88;0.80;;;;;;;;;;5068785;28;20227;-43
2023/07/26 12:36:45;;;;;;;1.02;0.63;;;;;;;;;;5072060;28;20226;-43
2023/07/26 12:39:17;;;;;;;1.77;0.93;;;;;;;;;;5073216;28;20627;-44
2023/07/26 12:41:45;;;;;;;1.70;0.57;;;;;;;;;;5075903;28;20223;-42
2023/07/26 12:44:14;;;;;;;1.65;0.73;;;;;;;;;;5075767;28;20222;-43
2023/07/26 12:46:43;;;;;;;1.42;0.80;;;;;;;;;;5075132;28;20223;-42
2023/07/26 12:49:13;;;;;;;2.95;0.77;;;;;;;;;;5075028;28;20305;-42
2023/07/26 12:51:40;;;;;;;1.00;0.77;;;;;;;;;;5075495;28;20227;-43
2023/07/26 12:54:07;;;;;;;1.50;0.82;;;;;;;;;;5075906;28;20231;-44
2023/07/26 12:56:35;;;;;;;1.10;0.95;;;;;;;;;;5075617;28;20214;-43
2023/07/26 12:59:03;;;;;;;9.93;0.88;;;;;;;;;;5075577;28;20329;-43
2023/07/26 13:01:39;;;;;;;3.67;0.80;;;;;;;;;;5075158;28;20738;-42
2023/07/26 13:04:07;;;;;;;2.08;0.80;;;;;;;;;;5075023;28;20233;-41
2023/07/26 13:06:36;;;;;;;3.60;1.00;;;;;;;;;;5075349;28;20224;-41
2023/07/26 13:09:05;;;;;;;2.38;1.17;;;;;;;;;;5075415;28;20698;-41
2023/07/26 13:11:33;;;;;;;1.10;0.98;;;;;;;;;;5075130;28;20579;-42
2023/07/26 13:14:00;;;;;;;2.22;1.10;;;;;;;;;;5075247;28;20260;-41
2023/07/26 13:16:28;;;;;;;3.42;1.00;;;;;;;;;;5074838;28;20239;-45
2023/07/26 13:19:02;;;;;;;12.45;1.30;;;;;;;;;;5074663;28;20292;-41
2023/07/26 13:21:31;;;;;;;3.90;1.38;;;;;;;;;;5074976;28;20337;-41
2023/07/26 13:23:58;;;;;;;1.25;1.05;;;;;;;;;;5074740;28;20600;-41
2023/07/26 13:26:26;;;;;;;2.03;0.98;;;;;;;;;;5074402;28;20265;-42
2023/07/26 13:28:53;;;;;;;1.35;1.02;;;;;;;;;;5071983;28;20210;-42
2023/07/26 13:31:21;;;;;;;4.28;1.10;;;;;;;;;;5074589;28;20242;-42
2023/07/26 13:33:48;;;;;;;2.35;0.90;;;;;;;;;;5073511;28;20739;-42
2023/07/26 13:36:20;;;;;;;1.70;1.08;;;;;;;;;;5074437;28;20703;-43
2023/07/26 13:38:47;;;;;;;2.20;1.27;;;;;;;;;;5074221;28;20603;-41
2023/07/26 13:41:14;;;;;;;4.45;1.70;;;;;;;;;;5072090;28;20274;-43
2023/07/26 13:43:41;;;;;;;3.72;1.35;;;;;;;;;;5073790;28;20211;-41
2023/07/26 13:46:09;;;;;;;4.93;1.00;;;;;;;;;;5067367;28;20274;-43
2023/07/26 13:48:56;;;;;;;3.05;1.30;;;;;;;;;;5070753;28;20219;-43
2023/07/26 13:51:23;;;;;;;1.30;0.90;;;;;;;;;;5072870;28;20234;-42
2023/07/26 13:53:50;;;;;;;1.88;1.10;;;;;;;;;;5073448;28;20270;-41
2023/07/26 13:56:18;;;;;;;1.13;0.98;;;;;;;;;;5072838;28;20251;-42
2023/07/26 13:58:45;;;;;;;2.58;1.10;;;;;;;;;;5073910;28;20223;-42
2023/07/26 14:01:15;;;;;;;1.77;1.23;;;;;;;;;;5073941;28;20245;-44
2023/07/26 14:03:55;;;;;;;5.25;1.10;;;;;;;;;;5072767;28;20211;-42
2023/07/26 14:06:24;;;;;;;1.45;0.90;;;;;;;;;;5066326;28;20219;-42
2023/07/26 14:08:51;;;;;;;2.97;1.20;;;;;;;;;;5071952;28;20215;-42
2023/07/26 14:11:19;;;;;;;2.25;1.08;;;;;;;;;;5073145;28;20219;-43
2023/07/26 14:13:47;;;;;;;2.45;1.05;;;;;;;;;;5073847;28;20302;-42
2023/07/26 14:16:14;;;;;;;1.27;0.98;;;;;;;;;;5073021;28;20749;-43
2023/07/26 14:19:00;;;;;;;1.90;0.90;;;;;;;;;;5073432;28;20235;-42
2023/07/26 14:21:28;;;;;;;1.95;1.35;;;;;;;;;;5073416;28;20223;-43
2023/07/26 14:23:55;;;;;;;1.75;1.10;;;;;;;;;;5073691;28;20222;-42
2023/07/26 14:26:22;;;;;;;1.65;0.90;;;;;;;;;;5070753;28;20230;-43
2023/07/26 14:28:49;;;;;;;3.00;1.08;;;;;;;;;;5071398;28;20602;-42
2023/07/26 14:31:16;;;;;;;1.65;1.15;;;;;;;;;;5072381;28;20219;-44
2023/07/26 14:33:43;;;;;;;2.17;1.02;;;;;;;;;;5072624;28;20211;-42
2023/07/26 14:36:11;;;;;;;2.47;0.98;;;;;;;;;;5071917;28;20219;-42
2023/07/26 14:38:38;;;;;;;2.05;1.30;;;;;;;;;;5072985;28;20215;-41
2023/07/26 14:41:07;;;;;;;0.95;0.90;;;;;;;;;;5072558;28;20556;-42
2023/07/26 14:43:34;;;;;;;1.83;1.00;;;;;;;;;;5071565;28;20306;-42
2023/07/26 14:46:01;;;;;;;2.08;1.13;;;;;;;;;;5072745;28;20602;-44
2023/07/26 14:48:28;;;;;;;1.80;1.10;;;;;;;;;;5072650;28;20591;-42